sensor_id;sensor_type;location;lat;lon;timestamp;P1;durP1;ratioP1;P2;durP2;ratioP2
1949;SDS011;975;48.760;9.152;2024-01-06T00:00:40;4.65;;;2.38;;
1949;SDS011;975;48.760;9.152;2024-01-06T00:03:09;5.43;;;2.15;;
1949;SDS011;975;48.760;9.152;2024-01-06T00:05:36;4.70;;;2.30;;
1949;SDS011;975;48.760;9.152;2024-01-06T00:08:04;3.72;;;1.60;;
1949;SDS011;975;48.760;9.152;2024-01-06T00:10:32;4.82;;;1.90;;
1949;SDS011;975;48.760;9.152;2024-01-06T00:12:59;3.90;;;1.85;;
1949;SDS011;975;48.760;9.152;2024-01-06T00:15:27;4.65;;;2.13;;
1949;SDS011;975;48.760;9.152;2024-01-06T00:17:55;2.75;;;1.67;;
1949;SDS011;975;48.760;9.152;2024-01-06T00:20:24;3.90;;;1.67;;
1949;SDS011;975;48.760;9.152;2024-01-06T00:22:51;5.57;;;1.70;;
1949;SDS011;975;48.760;9.152;2024-01-06T00:25:19;4.35;;;2.10;;
1949;SDS011;975;48.760;9.152;2024-01-06T00:27:49;3.25;;;1.70;;
1949;SDS011;975;48.760;9.152;2024-01-06T00:30:16;3.08;;;1.60;;
1949;SDS011;975;48.760;9.152;2024-01-06T00:32:44;4.40;;;1.80;;
1949;SDS011;975;48.760;9.152;2024-01-06T00:35:14;6.47;;;2.05;;
1949;SDS011;975;48.760;9.152;2024-01-06T00:37:51;2.67;;;1.40;;
1949;SDS011;975;48.760;9.152;2024-01-06T00:40:18;3.10;;;1.60;;
1949;SDS011;975;48.760;9.152;2024-01-06T00:42:46;8.82;;;3.03;;
1949;SDS011;975;48.760;9.152;2024-01-06T00:45:14;5.25;;;2.63;;
1949;SDS011;975;48.760;9.152;2024-01-06T00:47:44;11.35;;;3.00;;
1949;SDS011;975;48.760;9.152;2024-01-06T00:50:18;6.65;;;2.97;;
1949;SDS011;975;48.760;9.152;2024-01-06T00:52:46;9.18;;;2.47;;
1949;SDS011;975;48.760;9.152;2024-01-06T00:55:15;5.07;;;2.60;;
1949;SDS011;975;48.760;9.152;2024-01-06T00:57:42;5.97;;;2.15;;
1949;SDS011;975;48.760;9.152;2024-01-06T01:00:11;3.75;;;1.38;;
1949;SDS011;975;48.760;9.152;2024-01-06T01:02:38;5.15;;;1.58;;
1949;SDS011;975;48.760;9.152;2024-01-06T01:05:06;4.80;;;1.63;;
1949;SDS011;975;48.760;9.152;2024-01-06T01:07:34;3.60;;;1.75;;
1949;SDS011;975;48.760;9.152;2024-01-06T01:10:02;4.97;;;1.90;;
1949;SDS011;975;48.760;9.152;2024-01-06T01:12:34;3.33;;;1.27;;
1949;SDS011;975;48.760;9.152;2024-01-06T01:15:01;2.53;;;1.40;;
1949;SDS011;975;48.760;9.152;2024-01-06T01:17:32;2.55;;;1.27;;
1949;SDS011;975;48.760;9.152;2024-01-06T01:20:06;2.88;;;1.33;;
1949;SDS011;975;48.760;9.152;2024-01-06T01:22:34;3.05;;;1.20;;
1949;SDS011;975;48.760;9.152;2024-01-06T01:25:02;2.63;;;1.27;;
1949;SDS011;975;48.760;9.152;2024-01-06T01:27:36;1.55;;;0.95;;
1949;SDS011;975;48.760;9.152;2024-01-06T01:30:07;2.00;;;1.10;;
1949;SDS011;975;48.760;9.152;2024-01-06T01:32:35;2.05;;;0.90;;
1949;SDS011;975;48.760;9.152;2024-01-06T01:35:07;2.53;;;0.95;;
1949;SDS011;975;48.760;9.152;2024-01-06T01:37:35;1.35;;;0.90;;
1949;SDS011;975;48.760;9.152;2024-01-06T01:40:03;4.32;;;1.20;;
1949;SDS011;975;48.760;9.152;2024-01-06T01:42:31;5.03;;;1.13;;
1949;SDS011;975;48.760;9.152;2024-01-06T01:45:00;1.23;;;0.90;;
1949;SDS011;975;48.760;9.152;2024-01-06T01:47:27;1.85;;;0.95;;
1949;SDS011;975;48.760;9.152;2024-01-06T01:49:58;6.05;;;1.08;;
1949;SDS011;975;48.760;9.152;2024-01-06T01:52:25;4.47;;;0.93;;
1949;SDS011;975;48.760;9.152;2024-01-06T01:54:54;2.22;;;1.15;;
1949;SDS011;975;48.760;9.152;2024-01-06T01:57:21;3.63;;;0.95;;
1949;SDS011;975;48.760;9.152;2024-01-06T01:59:49;3.83;;;0.98;;
1949;SDS011;975;48.760;9.152;2024-01-06T02:02:19;5.13;;;1.30;;
1949;SDS011;975;48.760;9.152;2024-01-06T02:04:48;2.03;;;1.17;;
1949;SDS011;975;48.760;9.152;2024-01-06T02:07:15;3.63;;;0.93;;
1949;SDS011;975;48.760;9.152;2024-01-06T02:09:43;7.13;;;1.50;;
1949;SDS011;975;48.760;9.152;2024-01-06T02:12:11;3.45;;;1.15;;
1949;SDS011;975;48.760;9.152;2024-01-06T02:14:38;3.22;;;1.10;;
1949;SDS011;975;48.760;9.152;2024-01-06T02:17:07;2.25;;;0.98;;
1949;SDS011;975;48.760;9.152;2024-01-06T02:19:36;4.15;;;1.20;;
1949;SDS011;975;48.760;9.152;2024-01-06T02:22:07;3.35;;;1.10;;
1949;SDS011;975;48.760;9.152;2024-01-06T02:24:35;4.75;;;1.27;;
1949;SDS011;975;48.760;9.152;2024-01-06T02:27:03;5.05;;;1.13;;
1949;SDS011;975;48.760;9.152;2024-01-06T02:29:31;4.45;;;0.88;;
1949;SDS011;975;48.760;9.152;2024-01-06T02:31:59;2.30;;;1.10;;
1949;SDS011;975;48.760;9.152;2024-01-06T02:34:26;2.55;;;1.10;;
1949;SDS011;975;48.760;9.152;2024-01-06T02:36:54;5.15;;;0.90;;
1949;SDS011;975;48.760;9.152;2024-01-06T02:39:23;4.43;;;1.48;;
1949;SDS011;975;48.760;9.152;2024-01-06T02:41:50;2.03;;;0.93;;
1949;SDS011;975;48.760;9.152;2024-01-06T02:44:18;3.40;;;1.13;;
1949;SDS011;975;48.760;9.152;2024-01-06T02:46:45;2.83;;;0.95;;
1949;SDS011;975;48.760;9.152;2024-01-06T02:49:13;4.47;;;1.02;;
1949;SDS011;975;48.760;9.152;2024-01-06T02:51:47;4.57;;;1.38;;
1949;SDS011;975;48.760;9.152;2024-01-06T02:54:18;4.93;;;1.00;;
1949;SDS011;975;48.760;9.152;2024-01-06T02:56:47;2.20;;;1.00;;
1949;SDS011;975;48.760;9.152;2024-01-06T02:59:14;2.13;;;1.05;;
1949;SDS011;975;48.760;9.152;2024-01-06T03:01:42;2.50;;;1.05;;
1949;SDS011;975;48.760;9.152;2024-01-06T03:04:09;1.90;;;0.90;;
1949;SDS011;975;48.760;9.152;2024-01-06T03:06:37;2.90;;;1.05;;
1949;SDS011;975;48.760;9.152;2024-01-06T03:09:05;1.92;;;0.80;;
1949;SDS011;975;48.760;9.152;2024-01-06T03:11:33;1.70;;;0.77;;
1949;SDS011;975;48.760;9.152;2024-01-06T03:14:01;2.58;;;0.90;;
1949;SDS011;975;48.760;9.152;2024-01-06T03:16:29;2.05;;;1.08;;
1949;SDS011;975;48.760;9.152;2024-01-06T03:18:57;1.92;;;0.80;;
1949;SDS011;975;48.760;9.152;2024-01-06T03:21:24;2.60;;;1.13;;
1949;SDS011;975;48.760;9.152;2024-01-06T03:23:52;3.28;;;1.15;;
1949;SDS011;975;48.760;9.152;2024-01-06T03:26:20;2.97;;;0.98;;
1949;SDS011;975;48.760;9.152;2024-01-06T03:28:49;3.90;;;1.20;;
1949;SDS011;975;48.760;9.152;2024-01-06T03:31:18;1.30;;;0.90;;
1949;SDS011;975;48.760;9.152;2024-01-06T03:36:15;2.40;;;0.88;;
1949;SDS011;975;48.760;9.152;2024-01-06T03:38:42;1.27;;;0.80;;
1949;SDS011;975;48.760;9.152;2024-01-06T03:41:10;2.25;;;0.90;;
1949;SDS011;975;48.760;9.152;2024-01-06T03:43:37;3.33;;;1.08;;
1949;SDS011;975;48.760;9.152;2024-01-06T03:46:05;1.10;;;0.85;;
1949;SDS011;975;48.760;9.152;2024-01-06T03:48:34;2.25;;;0.80;;
1949;SDS011;975;48.760;9.152;2024-01-06T03:51:02;1.67;;;0.70;;
1949;SDS011;975;48.760;9.152;2024-01-06T03:53:29;1.15;;;0.70;;
1949;SDS011;975;48.760;9.152;2024-01-06T03:55:57;4.07;;;0.80;;
1949;SDS011;975;48.760;9.152;2024-01-06T03:58:27;4.57;;;0.98;;
1949;SDS011;975;48.760;9.152;2024-01-06T04:00:55;3.13;;;1.10;;
1949;SDS011;975;48.760;9.152;2024-01-06T04:03:23;3.28;;;0.90;;
1949;SDS011;975;48.760;9.152;2024-01-06T04:05:51;1.63;;;0.98;;
1949;SDS011;975;48.760;9.152;2024-01-06T04:08:19;1.92;;;1.00;;
1949;SDS011;975;48.760;9.152;2024-01-06T04:10:47;3.42;;;0.80;;
1949;SDS011;975;48.760;9.152;2024-01-06T04:13:14;1.23;;;0.90;;
1949;SDS011;975;48.760;9.152;2024-01-06T04:15:42;3.15;;;0.93;;
1949;SDS011;975;48.760;9.152;2024-01-06T04:18:10;4.68;;;1.00;;
1949;SDS011;975;48.760;9.152;2024-01-06T04:20:37;2.40;;;0.90;;
1949;SDS011;975;48.760;9.152;2024-01-06T04:23:06;2.35;;;0.75;;
1949;SDS011;975;48.760;9.152;2024-01-06T04:25:40;1.45;;;0.70;;
1949;SDS011;975;48.760;9.152;2024-01-06T04:28:08;2.40;;;0.85;;
1949;SDS011;975;48.760;9.152;2024-01-06T04:30:38;3.40;;;1.10;;
1949;SDS011;975;48.760;9.152;2024-01-06T04:33:06;1.95;;;1.05;;
1949;SDS011;975;48.760;9.152;2024-01-06T04:35:33;2.63;;;0.90;;
1949;SDS011;975;48.760;9.152;2024-01-06T04:38:01;2.88;;;0.90;;
1949;SDS011;975;48.760;9.152;2024-01-06T04:40:30;1.90;;;0.93;;
1949;SDS011;975;48.760;9.152;2024-01-06T04:43:00;3.42;;;1.17;;
1949;SDS011;975;48.760;9.152;2024-01-06T04:45:29;4.45;;;1.20;;
1949;SDS011;975;48.760;9.152;2024-01-06T04:47:56;2.15;;;0.90;;
1949;SDS011;975;48.760;9.152;2024-01-06T04:50:24;2.13;;;0.98;;
1949;SDS011;975;48.760;9.152;2024-01-06T04:52:51;4.32;;;1.00;;
1949;SDS011;975;48.760;9.152;2024-01-06T04:55:22;2.65;;;1.00;;
1949;SDS011;975;48.760;9.152;2024-01-06T04:57:51;8.55;;;1.10;;
1949;SDS011;975;48.760;9.152;2024-01-06T05:00:21;2.45;;;0.90;;
1949;SDS011;975;48.760;9.152;2024-01-06T05:02:49;7.13;;;1.30;;
1949;SDS011;975;48.760;9.152;2024-01-06T05:05:17;3.10;;;1.10;;
1949;SDS011;975;48.760;9.152;2024-01-06T05:07:45;1.50;;;0.95;;
1949;SDS011;975;48.760;9.152;2024-01-06T05:10:13;2.47;;;1.00;;
1949;SDS011;975;48.760;9.152;2024-01-06T05:12:43;1.00;;;0.65;;
1949;SDS011;975;48.760;9.152;2024-01-06T05:15:12;2.97;;;1.00;;
1949;SDS011;975;48.760;9.152;2024-01-06T05:17:40;2.47;;;1.10;;
1949;SDS011;975;48.760;9.152;2024-01-06T05:20:08;2.47;;;0.77;;
1949;SDS011;975;48.760;9.152;2024-01-06T05:22:35;2.45;;;0.82;;
1949;SDS011;975;48.760;9.152;2024-01-06T05:25:06;1.95;;;1.45;;
1949;SDS011;975;48.760;9.152;2024-01-06T05:27:34;4.05;;;0.88;;
1949;SDS011;975;48.760;9.152;2024-01-06T05:30:02;1.23;;;0.65;;
1949;SDS011;975;48.760;9.152;2024-01-06T05:32:31;1.08;;;0.80;;
1949;SDS011;975;48.760;9.152;2024-01-06T05:34:59;3.05;;;1.20;;
1949;SDS011;975;48.760;9.152;2024-01-06T05:37:29;2.63;;;0.93;;
1949;SDS011;975;48.760;9.152;2024-01-06T05:39:56;1.95;;;0.80;;
1949;SDS011;975;48.760;9.152;2024-01-06T05:42:26;3.05;;;0.73;;
1949;SDS011;975;48.760;9.152;2024-01-06T05:44:54;3.85;;;0.68;;
1949;SDS011;975;48.760;9.152;2024-01-06T05:47:22;1.45;;;0.75;;
1949;SDS011;975;48.760;9.152;2024-01-06T05:49:51;1.65;;;0.60;;
1949;SDS011;975;48.760;9.152;2024-01-06T05:52:18;4.13;;;1.38;;
1949;SDS011;975;48.760;9.152;2024-01-06T05:54:46;2.58;;;0.90;;
1949;SDS011;975;48.760;9.152;2024-01-06T05:57:16;1.92;;;1.05;;
1949;SDS011;975;48.760;9.152;2024-01-06T05:59:44;2.22;;;0.75;;
1949;SDS011;975;48.760;9.152;2024-01-06T06:02:14;6.03;;;0.98;;
1949;SDS011;975;48.760;9.152;2024-01-06T06:04:42;2.45;;;0.70;;
1949;SDS011;975;48.760;9.152;2024-01-06T06:07:14;3.85;;;0.93;;
1949;SDS011;975;48.760;9.152;2024-01-06T06:09:42;1.73;;;0.70;;
1949;SDS011;975;48.760;9.152;2024-01-06T06:12:12;1.85;;;0.82;;
1949;SDS011;975;48.760;9.152;2024-01-06T06:14:40;5.15;;;1.00;;
1949;SDS011;975;48.760;9.152;2024-01-06T06:17:07;3.38;;;0.68;;
1949;SDS011;975;48.760;9.152;2024-01-06T06:19:35;2.63;;;0.60;;
1949;SDS011;975;48.760;9.152;2024-01-06T06:22:03;1.17;;;0.70;;
1949;SDS011;975;48.760;9.152;2024-01-06T06:24:32;1.83;;;0.70;;
1949;SDS011;975;48.760;9.152;2024-01-06T06:26:59;2.80;;;1.25;;
1949;SDS011;975;48.760;9.152;2024-01-06T06:29:27;2.65;;;1.00;;
1949;SDS011;975;48.760;9.152;2024-01-06T06:31:57;2.58;;;0.90;;
1949;SDS011;975;48.760;9.152;2024-01-06T06:34:25;1.92;;;0.63;;
1949;SDS011;975;48.760;9.152;2024-01-06T06:36:52;0.90;;;0.73;;
1949;SDS011;975;48.760;9.152;2024-01-06T06:39:24;3.53;;;0.93;;
1949;SDS011;975;48.760;9.152;2024-01-06T06:41:54;5.47;;;0.82;;
1949;SDS011;975;48.760;9.152;2024-01-06T06:44:21;0.85;;;0.60;;
1949;SDS011;975;48.760;9.152;2024-01-06T06:46:49;1.25;;;0.70;;
1949;SDS011;975;48.760;9.152;2024-01-06T06:49:17;3.20;;;0.98;;
1949;SDS011;975;48.760;9.152;2024-01-06T06:51:44;1.13;;;0.73;;
1949;SDS011;975;48.760;9.152;2024-01-06T06:56:42;3.70;;;0.95;;
1949;SDS011;975;48.760;9.152;2024-01-06T06:59:11;1.55;;;1.02;;
1949;SDS011;975;48.760;9.152;2024-01-06T07:01:40;2.55;;;0.88;;
1949;SDS011;975;48.760;9.152;2024-01-06T07:04:07;6.80;;;1.63;;
1949;SDS011;975;48.760;9.152;2024-01-06T07:06:35;1.48;;;0.68;;
1949;SDS011;975;48.760;9.152;2024-01-06T07:09:03;2.42;;;0.52;;
1949;SDS011;975;48.760;9.152;2024-01-06T07:11:31;3.25;;;0.63;;
1949;SDS011;975;48.760;9.152;2024-01-06T07:13:59;1.95;;;0.88;;
1949;SDS011;975;48.760;9.152;2024-01-06T07:16:28;2.17;;;1.48;;
1949;SDS011;975;48.760;9.152;2024-01-06T07:18:58;0.70;;;0.70;;
1949;SDS011;975;48.760;9.152;2024-01-06T07:21:29;3.78;;;0.95;;
1949;SDS011;975;48.760;9.152;2024-01-06T07:23:56;2.10;;;0.70;;
1949;SDS011;975;48.760;9.152;2024-01-06T07:26:24;1.20;;;0.70;;
1949;SDS011;975;48.760;9.152;2024-01-06T07:28:51;3.50;;;0.70;;
1949;SDS011;975;48.760;9.152;2024-01-06T07:31:19;1.70;;;0.68;;
1949;SDS011;975;48.760;9.152;2024-01-06T07:33:48;1.67;;;0.63;;
1949;SDS011;975;48.760;9.152;2024-01-06T07:36:15;0.88;;;0.70;;
1949;SDS011;975;48.760;9.152;2024-01-06T07:38:43;1.73;;;1.00;;
1949;SDS011;975;48.760;9.152;2024-01-06T07:41:14;3.78;;;0.90;;
1949;SDS011;975;48.760;9.152;2024-01-06T07:43:45;1.27;;;0.80;;
1949;SDS011;975;48.760;9.152;2024-01-06T07:46:12;2.30;;;0.73;;
1949;SDS011;975;48.760;9.152;2024-01-06T07:48:40;2.38;;;0.60;;
1949;SDS011;975;48.760;9.152;2024-01-06T07:51:09;2.90;;;0.80;;
1949;SDS011;975;48.760;9.152;2024-01-06T07:53:36;3.03;;;1.00;;
1949;SDS011;975;48.760;9.152;2024-01-06T07:56:04;2.15;;;0.80;;
1949;SDS011;975;48.760;9.152;2024-01-06T07:58:32;3.33;;;0.90;;
1949;SDS011;975;48.760;9.152;2024-01-06T08:00:59;2.90;;;0.80;;
1949;SDS011;975;48.760;9.152;2024-01-06T08:03:27;2.53;;;0.80;;
1949;SDS011;975;48.760;9.152;2024-01-06T08:05:54;4.28;;;0.80;;
1949;SDS011;975;48.760;9.152;2024-01-06T08:08:23;2.42;;;1.13;;
1949;SDS011;975;48.760;9.152;2024-01-06T08:10:51;2.17;;;0.80;;
1949;SDS011;975;48.760;9.152;2024-01-06T08:13:19;3.92;;;1.27;;
1949;SDS011;975;48.760;9.152;2024-01-06T08:15:46;1.70;;;0.70;;
1949;SDS011;975;48.760;9.152;2024-01-06T08:18:14;3.15;;;0.93;;
1949;SDS011;975;48.760;9.152;2024-01-06T08:20:43;1.25;;;0.80;;
1949;SDS011;975;48.760;9.152;2024-01-06T08:23:18;1.33;;;0.98;;
1949;SDS011;975;48.760;9.152;2024-01-06T08:25:47;4.93;;;1.23;;
1949;SDS011;975;48.760;9.152;2024-01-06T08:28:18;3.22;;;0.80;;
1949;SDS011;975;48.760;9.152;2024-01-06T08:30:48;1.52;;;0.68;;
1949;SDS011;975;48.760;9.152;2024-01-06T08:33:16;2.80;;;0.95;;
1949;SDS011;975;48.760;9.152;2024-01-06T08:35:44;2.67;;;0.90;;
1949;SDS011;975;48.760;9.152;2024-01-06T08:38:11;7.40;;;1.48;;
1949;SDS011;975;48.760;9.152;2024-01-06T08:40:39;2.17;;;1.02;;
1949;SDS011;975;48.760;9.152;2024-01-06T08:43:08;3.58;;;1.05;;
1949;SDS011;975;48.760;9.152;2024-01-06T08:45:36;3.80;;;1.42;;
1949;SDS011;975;48.760;9.152;2024-01-06T08:48:04;3.13;;;1.00;;
1949;SDS011;975;48.760;9.152;2024-01-06T08:50:32;2.05;;;0.98;;
1949;SDS011;975;48.760;9.152;2024-01-06T08:52:59;3.53;;;1.15;;
1949;SDS011;975;48.760;9.152;2024-01-06T08:55:27;2.17;;;1.10;;
1949;SDS011;975;48.760;9.152;2024-01-06T08:57:54;2.88;;;1.13;;
1949;SDS011;975;48.760;9.152;2024-01-06T09:00:24;3.58;;;1.00;;
1949;SDS011;975;48.760;9.152;2024-01-06T09:02:51;1.02;;;0.73;;
1949;SDS011;975;48.760;9.152;2024-01-06T09:05:19;2.53;;;0.90;;
1949;SDS011;975;48.760;9.152;2024-01-06T09:07:47;2.05;;;0.82;;
1949;SDS011;975;48.760;9.152;2024-01-06T09:10:16;2.15;;;1.15;;
1949;SDS011;975;48.760;9.152;2024-01-06T09:12:43;1.60;;;0.65;;
1949;SDS011;975;48.760;9.152;2024-01-06T09:15:11;1.35;;;0.70;;
1949;SDS011;975;48.760;9.152;2024-01-06T09:17:40;3.10;;;0.90;;
1949;SDS011;975;48.760;9.152;2024-01-06T09:20:10;1.33;;;0.77;;
1949;SDS011;975;48.760;9.152;2024-01-06T09:22:38;1.45;;;1.20;;
1949;SDS011;975;48.760;9.152;2024-01-06T09:25:06;1.75;;;0.75;;
1949;SDS011;975;48.760;9.152;2024-01-06T09:27:34;2.58;;;0.90;;
1949;SDS011;975;48.760;9.152;2024-01-06T09:30:02;1.40;;;0.90;;
1949;SDS011;975;48.760;9.152;2024-01-06T09:32:30;1.38;;;0.60;;
1949;SDS011;975;48.760;9.152;2024-01-06T09:34:59;0.68;;;0.60;;
1949;SDS011;975;48.760;9.152;2024-01-06T09:37:26;1.90;;;0.90;;
1949;SDS011;975;48.760;9.152;2024-01-06T09:39:54;1.17;;;0.90;;
1949;SDS011;975;48.760;9.152;2024-01-06T09:42:21;2.53;;;0.80;;
1949;SDS011;975;48.760;9.152;2024-01-06T09:44:49;2.28;;;0.82;;
1949;SDS011;975;48.760;9.152;2024-01-06T09:47:17;0.85;;;0.65;;
1949;SDS011;975;48.760;9.152;2024-01-06T09:49:47;1.27;;;0.60;;
1949;SDS011;975;48.760;9.152;2024-01-06T09:52:19;0.70;;;0.50;;
1949;SDS011;975;48.760;9.152;2024-01-06T09:54:50;0.80;;;0.68;;
1949;SDS011;975;48.760;9.152;2024-01-06T09:57:18;1.58;;;0.60;;
1949;SDS011;975;48.760;9.152;2024-01-06T09:59:47;2.05;;;0.57;;
1949;SDS011;975;48.760;9.152;2024-01-06T10:02:15;1.65;;;0.63;;
1949;SDS011;975;48.760;9.152;2024-01-06T10:04:43;0.47;;;0.47;;
1949;SDS011;975;48.760;9.152;2024-01-06T10:07:10;1.38;;;0.50;;
1949;SDS011;975;48.760;9.152;2024-01-06T10:09:41;1.50;;;0.85;;
1949;SDS011;975;48.760;9.152;2024-01-06T10:12:09;1.83;;;0.80;;
1949;SDS011;975;48.760;9.152;2024-01-06T10:14:39;0.63;;;0.60;;
1949;SDS011;975;48.760;9.152;2024-01-06T10:17:06;3.22;;;0.88;;
1949;SDS011;975;48.760;9.152;2024-01-06T10:19:38;1.35;;;0.63;;
1949;SDS011;975;48.760;9.152;2024-01-06T10:22:06;7.78;;;2.70;;
1949;SDS011;975;48.760;9.152;2024-01-06T10:24:34;1.08;;;0.75;;
1949;SDS011;975;48.760;9.152;2024-01-06T10:27:05;1.98;;;0.63;;
1949;SDS011;975;48.760;9.152;2024-01-06T10:29:34;1.33;;;0.80;;
1949;SDS011;975;48.760;9.152;2024-01-06T10:32:02;1.83;;;0.63;;
1949;SDS011;975;48.760;9.152;2024-01-06T10:34:32;0.55;;;0.40;;
1949;SDS011;975;48.760;9.152;2024-01-06T10:37:02;2.70;;;1.27;;
1949;SDS011;975;48.760;9.152;2024-01-06T10:39:31;0.77;;;0.43;;
1949;SDS011;975;48.760;9.152;2024-01-06T10:41:59;0.80;;;0.45;;
1949;SDS011;975;48.760;9.152;2024-01-06T10:44:31;0.60;;;0.50;;
1949;SDS011;975;48.760;9.152;2024-01-06T10:46:59;0.70;;;0.57;;
1949;SDS011;975;48.760;9.152;2024-01-06T10:49:26;1.00;;;0.70;;
1949;SDS011;975;48.760;9.152;2024-01-06T10:51:55;1.08;;;0.43;;
1949;SDS011;975;48.760;9.152;2024-01-06T10:54:23;1.23;;;0.60;;
1949;SDS011;975;48.760;9.152;2024-01-06T10:56:51;1.20;;;0.50;;
1949;SDS011;975;48.760;9.152;2024-01-06T10:59:19;1.63;;;0.80;;
1949;SDS011;975;48.760;9.152;2024-01-06T11:01:51;1.20;;;0.68;;
1949;SDS011;975;48.760;9.152;2024-01-06T11:04:21;1.48;;;0.70;;
1949;SDS011;975;48.760;9.152;2024-01-06T11:06:49;1.23;;;0.65;;
1949;SDS011;975;48.760;9.152;2024-01-06T11:09:19;1.67;;;0.60;;
1949;SDS011;975;48.760;9.152;2024-01-06T11:11:49;1.15;;;0.50;;
1949;SDS011;975;48.760;9.152;2024-01-06T11:14:17;1.05;;;0.60;;
1949;SDS011;975;48.760;9.152;2024-01-06T11:16:45;1.92;;;0.70;;
1949;SDS011;975;48.760;9.152;2024-01-06T11:21:58;0.80;;;0.50;;
1949;SDS011;975;48.760;9.152;2024-01-06T11:24:46;0.82;;;0.50;;
1949;SDS011;975;48.760;9.152;2024-01-06T11:27:20;1.98;;;1.20;;
1949;SDS011;975;48.760;9.152;2024-01-06T11:29:48;1.33;;;0.77;;
1949;SDS011;975;48.760;9.152;2024-01-06T11:32:16;0.82;;;0.45;;
1949;SDS011;975;48.760;9.152;2024-01-06T11:34:49;3.13;;;0.43;;
1949;SDS011;975;48.760;9.152;2024-01-06T11:37:20;0.80;;;0.50;;
1949;SDS011;975;48.760;9.152;2024-01-06T11:39:53;0.80;;;0.70;;
1949;SDS011;975;48.760;9.152;2024-01-06T11:42:21;0.85;;;0.63;;
1949;SDS011;975;48.760;9.152;2024-01-06T11:44:52;1.13;;;0.68;;
1949;SDS011;975;48.760;9.152;2024-01-06T11:47:19;0.98;;;0.55;;
1949;SDS011;975;48.760;9.152;2024-01-06T11:49:49;0.40;;;0.40;;
1949;SDS011;975;48.760;9.152;2024-01-06T11:52:21;2.03;;;0.98;;
1949;SDS011;975;48.760;9.152;2024-01-06T11:54:51;0.73;;;0.60;;
1949;SDS011;975;48.760;9.152;2024-01-06T11:57:19;0.93;;;0.70;;
1949;SDS011;975;48.760;9.152;2024-01-06T11:59:47;2.40;;;0.73;;
1949;SDS011;975;48.760;9.152;2024-01-06T12:02:17;1.77;;;1.00;;
1949;SDS011;975;48.760;9.152;2024-01-06T12:04:47;1.70;;;0.80;;
1949;SDS011;975;48.760;9.152;2024-01-06T12:07:16;1.63;;;0.95;;
1949;SDS011;975;48.760;9.152;2024-01-06T12:09:49;0.98;;;0.80;;
1949;SDS011;975;48.760;9.152;2024-01-06T12:12:19;0.73;;;0.70;;
1949;SDS011;975;48.760;9.152;2024-01-06T12:14:47;1.08;;;0.90;;
1949;SDS011;975;48.760;9.152;2024-01-06T12:17:15;1.10;;;0.85;;
1949;SDS011;975;48.760;9.152;2024-01-06T12:19:43;1.20;;;0.80;;
1949;SDS011;975;48.760;9.152;2024-01-06T12:22:12;1.50;;;0.90;;
1949;SDS011;975;48.760;9.152;2024-01-06T12:24:39;4.03;;;0.90;;
1949;SDS011;975;48.760;9.152;2024-01-06T12:27:09;1.98;;;1.02;;
1949;SDS011;975;48.760;9.152;2024-01-06T12:29:37;1.40;;;0.68;;
1949;SDS011;975;48.760;9.152;2024-01-06T12:32:05;0.95;;;0.90;;
1949;SDS011;975;48.760;9.152;2024-01-06T12:34:33;0.95;;;0.88;;
1949;SDS011;975;48.760;9.152;2024-01-06T12:37:01;2.35;;;1.00;;
1949;SDS011;975;48.760;9.152;2024-01-06T12:39:29;0.98;;;0.70;;
1949;SDS011;975;48.760;9.152;2024-01-06T12:41:57;1.83;;;1.10;;
1949;SDS011;975;48.760;9.152;2024-01-06T12:44:27;1.15;;;0.80;;
1949;SDS011;975;48.760;9.152;2024-01-06T12:46:57;1.23;;;0.73;;
1949;SDS011;975;48.760;9.152;2024-01-06T12:49:25;2.67;;;1.17;;
1949;SDS011;975;48.760;9.152;2024-01-06T12:51:53;2.47;;;0.88;;
1949;SDS011;975;48.760;9.152;2024-01-06T12:54:20;0.98;;;0.70;;
1949;SDS011;975;48.760;9.152;2024-01-06T12:56:54;0.70;;;0.70;;
1949;SDS011;975;48.760;9.152;2024-01-06T12:59:22;2.15;;;0.90;;
1949;SDS011;975;48.760;9.152;2024-01-06T13:01:50;1.35;;;0.82;;
1949;SDS011;975;48.760;9.152;2024-01-06T13:04:18;2.95;;;1.63;;
1949;SDS011;975;48.760;9.152;2024-01-06T13:06:46;1.20;;;0.93;;
1949;SDS011;975;48.760;9.152;2024-01-06T13:09:14;1.70;;;0.93;;
1949;SDS011;975;48.760;9.152;2024-01-06T13:11:42;2.85;;;1.25;;
1949;SDS011;975;48.760;9.152;2024-01-06T13:14:11;2.25;;;1.10;;
1949;SDS011;975;48.760;9.152;2024-01-06T13:16:39;2.00;;;1.33;;
1949;SDS011;975;48.760;9.152;2024-01-06T13:19:08;3.88;;;1.40;;
1949;SDS011;975;48.760;9.152;2024-01-06T13:21:35;1.58;;;1.05;;
1949;SDS011;975;48.760;9.152;2024-01-06T13:24:05;1.60;;;1.27;;
1949;SDS011;975;48.760;9.152;2024-01-06T13:26:32;2.83;;;1.77;;
1949;SDS011;975;48.760;9.152;2024-01-06T13:29:01;2.88;;;1.40;;
1949;SDS011;975;48.760;9.152;2024-01-06T13:31:29;2.92;;;1.27;;
1949;SDS011;975;48.760;9.152;2024-01-06T13:33:58;3.20;;;1.50;;
1949;SDS011;975;48.760;9.152;2024-01-06T13:36:27;3.10;;;2.13;;
1949;SDS011;975;48.760;9.152;2024-01-06T13:38:54;4.53;;;2.03;;
1949;SDS011;975;48.760;9.152;2024-01-06T13:41:22;3.15;;;1.75;;
1949;SDS011;975;48.760;9.152;2024-01-06T13:43:49;2.72;;;1.63;;
1949;SDS011;975;48.760;9.152;2024-01-06T13:46:17;4.03;;;1.98;;
1949;SDS011;975;48.760;9.152;2024-01-06T13:48:45;3.17;;;1.80;;
1949;SDS011;975;48.760;9.152;2024-01-06T13:51:12;3.00;;;1.70;;
1949;SDS011;975;48.760;9.152;2024-01-06T13:53:41;4.32;;;2.22;;
1949;SDS011;975;48.760;9.152;2024-01-06T13:56:09;4.60;;;1.90;;
1949;SDS011;975;48.760;9.152;2024-01-06T13:58:37;5.55;;;2.33;;
1949;SDS011;975;48.760;9.152;2024-01-06T14:01:04;4.25;;;2.08;;
1949;SDS011;975;48.760;9.152;2024-01-06T14:03:33;4.47;;;2.20;;
1949;SDS011;975;48.760;9.152;2024-01-06T14:06:01;3.47;;;2.28;;
1949;SDS011;975;48.760;9.152;2024-01-06T14:08:29;4.50;;;2.00;;
1949;SDS011;975;48.760;9.152;2024-01-06T14:10:58;3.35;;;2.10;;
1949;SDS011;975;48.760;9.152;2024-01-06T14:13:25;3.97;;;2.15;;
1949;SDS011;975;48.760;9.152;2024-01-06T14:15:53;4.63;;;2.72;;
1949;SDS011;975;48.760;9.152;2024-01-06T14:18:21;5.15;;;2.10;;
1949;SDS011;975;48.760;9.152;2024-01-06T14:20:49;4.82;;;1.90;;
1949;SDS011;975;48.760;9.152;2024-01-06T14:23:17;3.42;;;2.00;;
1949;SDS011;975;48.760;9.152;2024-01-06T14:25:45;2.78;;;2.00;;
1949;SDS011;975;48.760;9.152;2024-01-06T14:28:14;3.22;;;1.80;;
1949;SDS011;975;48.760;9.152;2024-01-06T14:30:42;2.85;;;1.58;;
1949;SDS011;975;48.760;9.152;2024-01-06T14:33:09;4.82;;;1.77;;
1949;SDS011;975;48.760;9.152;2024-01-06T14:35:37;4.43;;;1.70;;
1949;SDS011;975;48.760;9.152;2024-01-06T14:38:05;2.50;;;1.60;;
1949;SDS011;975;48.760;9.152;2024-01-06T14:40:32;4.50;;;1.67;;
1949;SDS011;975;48.760;9.152;2024-01-06T14:43:00;4.07;;;1.88;;
1949;SDS011;975;48.760;9.152;2024-01-06T14:45:31;4.47;;;1.85;;
1949;SDS011;975;48.760;9.152;2024-01-06T14:47:58;5.32;;;2.25;;
1949;SDS011;975;48.760;9.152;2024-01-06T14:50:26;3.97;;;1.80;;
1949;SDS011;975;48.760;9.152;2024-01-06T14:52:56;3.85;;;1.90;;
1949;SDS011;975;48.760;9.152;2024-01-06T14:55:24;3.78;;;2.30;;
1949;SDS011;975;48.760;9.152;2024-01-06T14:57:54;4.53;;;2.25;;
1949;SDS011;975;48.760;9.152;2024-01-06T15:00:22;4.13;;;2.85;;
1949;SDS011;975;48.760;9.152;2024-01-06T15:02:53;5.45;;;2.60;;
1949;SDS011;975;48.760;9.152;2024-01-06T15:05:21;4.65;;;2.50;;
1949;SDS011;975;48.760;9.152;2024-01-06T15:07:51;3.95;;;2.20;;
1949;SDS011;975;48.760;9.152;2024-01-06T15:10:19;5.00;;;2.53;;
1949;SDS011;975;48.760;9.152;2024-01-06T15:12:47;4.30;;;2.60;;
1949;SDS011;975;48.760;9.152;2024-01-06T15:15:14;6.78;;;3.17;;
1949;SDS011;975;48.760;9.152;2024-01-06T15:17:42;5.00;;;2.40;;
1949;SDS011;975;48.760;9.152;2024-01-06T15:20:11;5.68;;;3.00;;
1949;SDS011;975;48.760;9.152;2024-01-06T15:22:39;8.23;;;2.80;;
1949;SDS011;975;48.760;9.152;2024-01-06T15:25:07;8.18;;;3.17;;
1949;SDS011;975;48.760;9.152;2024-01-06T15:27:35;7.45;;;3.33;;
1949;SDS011;975;48.760;9.152;2024-01-06T15:30:03;6.40;;;2.92;;
1949;SDS011;975;48.760;9.152;2024-01-06T15:32:33;5.28;;;2.50;;
1949;SDS011;975;48.760;9.152;2024-01-06T15:35:01;6.50;;;2.95;;
1949;SDS011;975;48.760;9.152;2024-01-06T15:37:30;4.97;;;2.47;;
1949;SDS011;975;48.760;9.152;2024-01-06T15:39:58;5.88;;;2.88;;
1949;SDS011;975;48.760;9.152;2024-01-06T15:42:25;6.68;;;3.25;;
1949;SDS011;975;48.760;9.152;2024-01-06T15:44:54;5.38;;;2.60;;